DW7021 Weather Reports


time (UTC)temp
C
wind
direction
speed
KPH
gust
KPH
rain 1hr
cm
rain 24hr
cm
rain mn
cm
humidity
%
barometer
mb
20190423080006 15 77 1.6 6.4 0.00 0.00 0.00 68 1024.0
20190423075005 16 90 1.6 6.4 0.00 0.00 0.00 63 1024.0
20190423074005 17 111 1.6 4.8 0.00 0.00 0.00 58 1023.9
20190423073005 18 96 1.6 6.4 0.00 0.00 0.00 57 1023.8
20190423072006 17 85 3.2 6.4 0.00 0.00 0.00 59 1023.9
20190423071005 18 90 3.2 6.4 0.00 0.00 0.00 56 1023.9
20190423070005 18 118 3.2 8.0 0.00 0.00 0.00 55 1023.8
20190423065005 18 95 3.2 9.7 0.00 0.00 0.00 56 1023.9
20190423064005 18 90 3.2 11.3 0.00 0.00 0.00 55 1024.0
20190423063005 18 91 3.2 9.7 0.00 0.00 0.00 54 1024.1
20190423062006 20 106 3.2 8.0 0.00 0.00 0.00 51 1023.9
20190423061005 20 75 4.8 11.3 0.00 0.00 0.00 49 1023.8
20190423060006 21 85 3.2 9.7 0.00 0.00 0.00 45 1023.8
20190423055004 21 107 4.8 9.7 0.00 0.00 0.00 45 1023.9
20190423054005 21 102 3.2 8.0 0.00 0.00 0.00 46 1023.8
20190423053006 21 122 3.2 8.0 0.00 0.00 0.00 43 1023.9
20190423052005 22 113 3.2 9.7 0.00 0.00 0.00 41 1024.0
20190423051004 22 111 3.2 12.9 0.00 0.00 0.00 39 1024.1
20190423050005 23 115 4.8 12.9 0.00 0.00 0.00 38 1023.7
20190423045004 22 108 4.8 9.7 0.00 0.00 0.00 42 1023.9
20190423044004 22 98 4.8 12.9 0.00 0.00 0.00 41 1023.9
20190423043005 22 106 4.8 14.5 0.00 0.00 0.00 40 1023.8
20190423042006 24 125 3.2 11.3 0.00 0.00 0.00 39 1023.9
20190423041005 23 107 3.2 11.3 0.00 0.00 0.00 38 1023.9
20190423040006 23 112 3.2 12.9 0.00 0.00 0.00 42 1024.0
20190423035005 23 80 3.2 12.9 0.00 0.00 0.00 40 1024.1
20190423034005 22 111 4.8 11.3 0.00 0.00 0.00 43 1024.2
20190423033005 23 126 3.2 11.3 0.00 0.00 0.00 41 1024.2
20190423032005 24 159 3.2 11.3 0.00 0.00 0.00 40 1024.1
20190423031006 23 143 1.6 8.0 0.00 0.00 0.00 41 1024.4
20190423030006 22 90 3.2 9.7 0.00 0.00 0.00 43 1024.4
20190423025005 22 105 4.8 11.3 0.00 0.00 0.00 41 1024.4
20190423024005 21 90 3.2 12.9 0.00 0.00 0.00 42 1024.6
20190423023005 23 132 3.2 8.0 0.00 0.00 0.00 41 1024.7
20190423022005 22 112 4.8 12.9 0.00 0.00 0.00 41 1024.7
20190423021005 23 148 4.8 14.5 0.00 0.00 0.00 38 1024.9
20190423020005 23 119 3.2 12.9 0.00 0.00 0.00 41 1024.9
20190423015005 23 166 3.2 11.3 0.00 0.00 0.00 41 1025.1
20190423014005 22 135 3.2 11.3 0.00 0.00 0.00 42 1025.3
20190423013004 22 167 4.8 8.0 0.00 0.00 0.00 45 1025.3
20190423012005 22 153 4.8 9.7 0.00 0.00 0.00 43 1025.3
20190423011005 23 157 3.2 9.7 0.00 0.00 0.00 42 1025.3
20190423010005 23 111 3.2 11.3 0.00 0.00 0.00 43 1025.4
20190423005005 24 136 3.2 8.0 0.00 0.00 0.00 38 1025.4
20190423004005 26 94 1.6 6.4 0.00 0.00 0.00 32 1025.4
20190423003005 26 100 1.6 4.8 0.00 0.00 0.00 37 1025.5
20190423002006 25 113 0.0 3.2 0.00 0.00 0.00 41 1025.6
20190423001006 25 123 0.0 3.2 0.00 0.00 0.00 44 1025.5
20190423000006 22 107 0.0 3.2 0.00 0.00 0.00 48 1025.5
20190422235005 22 115 0.0 3.2 0.00 0.00 0.00 50 1025.6
20190422234005 21 18 0.0 3.2 0.00 0.00 0.00 60 1025.6
20190422233005 19 316 0.0 3.2 0.00 0.00 0.00 68 1025.7
20190422232005 17 308 0.0 3.2 0.00 0.00 0.00 74 1025.7
20190422231005 17 314 0.0 3.2 0.00 0.00 0.00 80 1025.7
20190422230004 15 0 0.0 0.0 0.00 0.00 0.00 88 1025.8
20190422225005 13 0 0.0 3.2 0.00 0.00 0.00 92 1025.5
20190422224005 11 0 0.0 0.0 0.00 0.00 0.00 91 1025.4
20190422223005 10 0 0.0 0.0 0.00 0.00 0.00 93 1025.1
20190422222004 8 0 0.0 0.0 0.00 0.00 0.00 94 1025.0
20190422221004 7 0 0.0 1.6 0.00 0.00 0.00 95 1024.8
20190422220005 6 0 0.0 0.0 0.00 0.00 0.00 95 1024.5
20190422215005 5 0 0.0 0.0 0.00 0.00 0.00 95 1024.0
20190422214005 3 0 0.0 0.0 0.00 0.00 0.00 96 1023.7
20190422213006 2 0 0.0 1.6 0.00 0.00 0.00 91 1023.3
20190422212005 1 0 0.0 3.2 0.00 0.00 0.00 92 1023.3
20190422211005 1 0 0.0 0.0 0.00 0.00 0.00 91 1023.0
20190422210005 1 0 0.0 0.0 0.00 0.00 0.00 91 1023.0
20190422205005 1 0 0.0 0.0 0.00 0.00 0.00 91 1022.8
20190422204005 2 0 0.0 0.0 0.00 0.00 0.00 90 1022.7
20190422203006 1 0 0.0 0.0 0.00 0.00 0.00 91 1022.7
20190422202005 2 0 0.0 0.0 0.00 0.00 0.00 90 1022.6
20190422201005 2 0 0.0 0.0 0.00 0.00 0.00 90 1022.7
20190422200005 2 0 0.0 0.0 0.00 0.00 0.00 89 1022.8
20190422195005 2 0 0.0 0.0 0.00 0.00 0.00 90 1022.6
20190422194005 2 0 0.0 0.0 0.00 0.00 0.00 90 1022.5
20190422193006 2 0 0.0 0.0 0.00 0.00 0.00 89 1022.5
20190422192005 2 0 0.0 0.0 0.00 0.00 0.00 89 1022.5
20190422191005 2 0 0.0 0.0 0.00 0.00 0.00 93 1022.6
20190422190005 2 0 0.0 0.0 0.00 0.00 0.00 89 1022.6
20190422185005 2 0 0.0 0.0 0.00 0.00 0.00 89 1022.5
20190422184006 3 0 0.0 0.0 0.00 0.00 0.00 93 1022.6
20190422183005 3 0 0.0 0.0 0.00 0.00 0.00 93 1022.6
20190422182005 3 0 0.0 0.0 0.00 0.00 0.00 92 1022.8
20190422181006 3 0 0.0 0.0 0.00 0.00 0.00 93 1022.8
20190422180005 3 0 0.0 0.0 0.00 0.00 0.00 92 1022.8
20190422175005 4 0 0.0 0.0 0.00 0.00 0.00 91 1022.9
20190422174005 3 0 0.0 0.0 0.00 0.00 0.00 91 1023.0
20190422173005 4 0 0.0 0.0 0.00 0.00 0.00 91 1023.0
20190422172005 3 0 0.0 0.0 0.00 0.00 0.00 92 1023.1
20190422171005 3 0 0.0 0.0 0.00 0.00 0.00 92 1023.2
20190422170005 3 0 0.0 0.0 0.00 0.00 0.00 91 1023.1
20190422165005 3 0 0.0 0.0 0.00 0.00 0.00 91 1023.2
20190422164005 3 0 0.0 0.0 0.00 0.00 0.00 90 1023.3
20190422163006 3 0 0.0 0.0 0.00 0.00 0.00 90 1023.4
20190422162006 3 0 0.0 0.0 0.00 0.00 0.00 91 1023.4
20190422161005 4 0 0.0 0.0 0.00 0.00 0.00 89 1023.6
20190422160005 4 0 0.0 0.0 0.00 0.00 0.00 89 1023.7
20190422155005 4 0 0.0 0.0 0.00 0.00 0.00 89 1023.9
20190422154006 4 0 0.0 0.0 0.00 0.00 0.00 88 1023.9
20190422153005 5 0 0.0 0.0 0.00 0.00 0.00 87 1023.7
20190422152005 5 0 0.0 0.0 0.00 0.00 0.00 88 1023.9
20190422151005 5 0 0.0 0.0 0.00 0.00 0.00 87 1023.9
20190422150007 5 0 0.0 0.0 0.00 0.00 0.00 86 1024.0
20190422145005 5 0 0.0 0.0 0.00 0.00 0.00 85 1023.9
20190422144005 5 0 0.0 0.0 0.00 0.00 0.00 85 1023.8
20190422143005 6 0 0.0 0.0 0.00 0.00 0.00 84 1023.8
20190422142005 5 0 0.0 0.0 0.00 0.00 0.00 84 1024.0
20190422141005 6 0 0.0 0.0 0.00 0.00 0.00 82 1023.9
20190422140006 6 0 0.0 0.0 0.00 0.00 0.00 82 1024.0
20190422135005 6 0 0.0 0.0 0.00 0.00 0.00 81 1023.9
20190422134005 6 0 0.0 0.0 0.00 0.00 0.00 80 1024.0
20190422133005 7 0 0.0 0.0 0.00 0.00 0.00 79 1024.1
20190422132006 7 0 0.0 0.0 0.00 0.00 0.00 78 1024.2
20190422131005 7 0 0.0 0.0 0.00 0.00 0.00 77 1024.1
20190422130006 7 0 0.0 0.0 0.00 0.00 0.00 77 1024.2
20190422125006 7 0 0.0 0.0 0.00 0.00 0.00 77 1024.3
20190422124005 8 0 0.0 0.0 0.00 0.00 0.00 76 1024.3
20190422123005 8 0 0.0 0.0 0.00 0.00 0.00 76 1024.5
20190422122005 9 0 0.0 3.2 0.00 0.00 0.00 74 1024.6
20190422121005 9 284 1.6 4.8 0.00 0.00 0.00 73 1024.6
20190422120005 10 310 1.6 6.4 0.00 0.00 0.00 72 1024.7
20190422115006 10 336 1.6 6.4 0.00 0.00 0.00 71 1024.9
20190422114005 11 18 1.6 3.2 0.00 0.00 0.00 70 1025.0
20190422113005 11 0 0.0 0.0 0.00 0.00 0.00 70 1025.0
20190422112006 12 143 1.6 4.8 0.00 0.00 0.00 69 1025.1
20190422111005 12 155 0.0 3.2 0.00 0.00 0.00 68 1024.8
20190422110005 12 174 0.0 4.8 0.00 0.00 0.00 68 1024.9
20190422105005 12 159 1.6 6.4 0.00 0.00 0.00 68 1024.9
20190422104005 12 183 0.0 3.2 0.00 0.00 0.00 66 1025.0
20190422103006 13 164 1.6 6.4 0.00 0.00 0.00 65 1024.8
20190422102006 13 153 1.6 6.4 0.00 0.00 0.00 65 1024.8
20190422101005 13 158 0.0 6.4 0.00 0.00 0.00 66 1024.8
20190422100005 13 144 1.6 6.4 0.00 0.00 0.00 65 1024.9
20190422095005 14 153 1.6 6.4 0.00 0.00 0.00 64 1024.8
20190422094006 14 143 0.0 4.8 0.00 0.00 0.00 63 1024.8
20190422093008 15 140 0.0 4.8 0.00 0.00 0.00 63 1024.9
20190422091005 15 118 1.6 6.4 0.00 0.00 0.00 59 1024.9
20190422090008 15 178 1.6 6.4 0.00 0.00 0.00 60 1024.7
20190422085005 15 138 1.6 6.4 0.00 0.00 0.00 61 1024.6
20190422084005 15 148 1.6 6.4 0.00 0.00 0.00 61 1024.5
20190422083005 15 165 1.6 4.8 0.00 0.00 0.00 61 1024.3
20190422082005 15 126 0.0 4.8 0.00 0.00 0.00 62 1024.3
20190422081005 15 172 0.0 3.2 0.00 0.00 0.00 62 1023.9